Time;durP1;ratioP1;P1;durP2;ratioP2;P2;SDS_P1;SDS_P2;PMS_P1;PMS_P2;Temp;Humidity;BMP_temperature;BMP_pressure;BME280_temperature;BME280_humidity;BME280_pressure;Samples;Min_cycle;Max_cycle;Signal;HPM_P1;HPM_P2
2021/11/12 00:02:45;;;;;;;;;;;23.90;29.50;;;;;;482698;246;1106;-74
2021/11/12 00:14:22;;;;;;;;;;;24.00;29.40;;;;;;472476;247;1168;-74
2021/11/12 00:16:16;;;;;;;;;;;24.00;29.50;;;;;;482094;247;1442;-74
2021/11/12 00:18:16;;;;;;;;;;;24.00;29.50;;;;;;482635;247;1332;-74
2021/11/12 00:20:18;;;;;;;;;;;24.30;29.10;;;;;;482723;246;1221;-74
2021/11/12 00:22:22;;;;;;;;;;;24.00;29.20;;;;;;482648;246;1129;-75
2021/11/12 00:24:22;;;;;;;;;;;23.80;29.50;;;;;;482541;247;2173;-74
2021/11/12 00:26:23;;;;;;;;;;;24.00;29.30;;;;;;482634;247;1158;-74
2021/11/12 00:28:26;;;;;;;;;;;24.20;29.20;;;;;;482770;246;1049;-74
2021/11/12 00:30:35;;;;;;;;;;;23.90;29.40;;;;;;482597;247;1340;-74
2021/11/12 00:32:40;;;;;;;;;;;23.90;29.40;;;;;;482288;247;1437;-74
2021/11/12 00:34:54;;;;;;;;;;;23.90;29.50;;;;;;482333;247;1512;-74
2021/11/12 00:36:56;;;;;;;;;;;23.70;29.50;;;;;;482449;247;1336;-74
2021/11/12 00:38:56;;;;;;;;;;;24.00;29.40;;;;;;482416;247;1329;-74
2021/11/12 00:40:57;;;;;;;;;;;23.80;29.40;;;;;;482552;247;1256;-74
2021/11/12 00:43:13;;;;;;;;;;;23.80;29.40;;;;;;482544;247;2196;-74
2021/11/12 00:45:18;;;;;;;;;;;23.60;29.60;;;;;;482574;247;1532;-74
2021/11/12 00:47:25;;;;;;;;;;;23.60;29.70;;;;;;482380;247;1536;-74
2021/11/12 00:49:25;;;;;;;;;;;23.70;29.50;;;;;;482576;247;1968;-74
2021/11/12 00:51:25;;;;;;;;;;;24.00;29.50;;;;;;482723;247;1397;-74
2021/11/12 00:53:48;;;;;;;;;;;23.90;29.30;;;;;;482740;246;1330;-74
2021/11/12 00:55:43;;;;;;;;;;;24.20;29.10;;;;;;482365;247;1345;-74
2021/11/12 00:57:45;;;;;;;;;;;24.00;29.30;;;;;;482707;247;1211;-74
2021/11/12 00:59:46;;;;;;;;;;;24.20;29.20;;;;;;482742;247;1002;-74
2021/11/12 01:01:48;;;;;;;;;;;23.90;29.10;;;;;;482681;246;1211;-74
2021/11/12 01:03:49;;;;;;;;;;;23.70;29.40;;;;;;482726;247;2133;-74
2021/11/12 01:05:50;;;;;;;;;;;24.00;29.20;;;;;;482731;247;1103;-74
2021/11/12 01:07:51;;;;;;;;;;;24.10;29.00;;;;;;482691;247;1185;-74
2021/11/12 01:09:53;;;;;;;;;;;23.90;29.30;;;;;;482676;246;1010;-74
2021/11/12 01:11:54;;;;;;;;;;;23.90;29.20;;;;;;482691;246;1168;-74
2021/11/12 01:13:55;;;;;;;;;;;24.00;29.20;;;;;;482644;247;1065;-74
2021/11/12 01:15:57;;;;;;;;;;;23.70;29.30;;;;;;482596;246;1167;-74
2021/11/12 01:17:58;;;;;;;;;;;23.90;29.10;;;;;;482759;247;1280;-74
2021/11/12 01:19:59;;;;;;;;;;;23.90;29.30;;;;;;482761;246;1256;-74
2021/11/12 01:22:01;;;;;;;;;;;23.70;29.40;;;;;;482713;246;1090;-74
2021/11/12 01:24:02;;;;;;;;;;;23.90;29.20;;;;;;482650;247;2188;-74
2021/11/12 01:26:03;;;;;;;;;;;23.60;29.40;;;;;;482667;246;1107;-74
2021/11/12 01:28:05;;;;;;;;;;;23.80;29.30;;;;;;482632;247;1071;-74
2021/11/12 01:30:06;;;;;;;;;;;24.00;29.00;;;;;;482675;247;977;-74
2021/11/12 01:32:21;;;;;;;;;;;23.80;29.10;;;;;;482699;246;1279;-74
2021/11/12 01:34:21;;;;;;;;;;;23.80;29.10;;;;;;482680;247;1417;-74
2021/11/12 01:36:31;;;;;;;;;;;23.80;29.10;;;;;;482648;247;974;-74
2021/11/12 01:38:31;;;;;;;;;;;23.70;29.20;;;;;;482681;247;1431;-74
2021/11/12 01:40:32;;;;;;;;;;;23.70;29.30;;;;;;482747;246;1278;-74
2021/11/12 01:42:34;;;;;;;;;;;23.60;29.40;;;;;;482673;247;1201;-74
2021/11/12 01:44:38;;;;;;;;;;;23.70;29.20;;;;;;482734;246;2141;-74
2021/11/12 01:47:09;;;;;;;;;;;23.40;29.40;;;;;;482605;247;1317;-74
2021/11/12 01:49:11;;;;;;;;;;;23.80;29.20;;;;;;482023;247;1467;-74
2021/11/12 01:51:10;;;;;;;;;;;23.40;29.40;;;;;;482559;247;1382;-74
2021/11/12 01:53:11;;;;;;;;;;;23.60;29.40;;;;;;482528;247;1438;-74
2021/11/12 01:55:12;;;;;;;;;;;23.60;29.40;;;;;;482590;247;1269;-74
2021/11/12 01:59:32;;;;;;;;;;;23.40;29.60;;;;;;478105;247;1147;-74
2021/11/12 02:01:33;;;;;;;;;;;23.20;29.60;;;;;;482705;246;1098;-74
2021/11/12 02:03:34;;;;;;;;;;;23.20;29.70;;;;;;482671;247;2177;-74
2021/11/12 02:05:36;;;;;;;;;;;23.50;29.50;;;;;;482656;246;1116;-74
2021/11/12 02:07:37;;;;;;;;;;;23.40;29.50;;;;;;482729;246;1050;-74
2021/11/12 02:09:38;;;;;;;;;;;23.20;29.60;;;;;;482718;247;1068;-74
2021/11/12 02:11:40;;;;;;;;;;;23.40;29.50;;;;;;482654;246;1148;-74
2021/11/12 02:13:43;;;;;;;;;;;23.00;29.90;;;;;;482796;246;1267;-74
2021/11/12 02:15:43;;;;;;;;;;;23.10;29.80;;;;;;482574;247;1505;-74
2021/11/12 02:17:47;;;;;;;;;;;23.00;29.80;;;;;;482724;247;1255;-74
2021/11/12 02:19:49;;;;;;;;;;;23.00;29.80;;;;;;482653;247;1317;-74
2021/11/12 02:21:54;;;;;;;;;;;22.90;30.00;;;;;;482576;247;1468;-74
2021/11/12 02:23:56;;;;;;;;;;;23.00;30.00;;;;;;482483;247;2189;-74
2021/11/12 02:25:53;;;;;;;;;;;23.10;29.80;;;;;;482394;247;1513;-74
2021/11/12 02:27:57;;;;;;;;;;;23.20;29.80;;;;;;482784;247;1060;-74
2021/11/12 02:29:56;;;;;;;;;;;23.20;29.60;;;;;;482578;247;1372;-74
2021/11/12 02:31:57;;;;;;;;;;;23.20;29.60;;;;;;482706;247;1041;-74
2021/11/12 02:33:59;;;;;;;;;;;23.30;29.60;;;;;;482772;243;1197;-74
2021/11/12 02:36:00;;;;;;;;;;;23.10;29.70;;;;;;482731;246;927;-74
2021/11/12 02:38:03;;;;;;;;;;;23.20;29.80;;;;;;482727;247;1193;-74
2021/11/12 02:40:03;;;;;;;;;;;23.10;29.70;;;;;;482608;247;1493;-74
2021/11/12 02:42:04;;;;;;;;;;;23.20;29.50;;;;;;482709;247;1173;-74
2021/11/12 02:44:05;;;;;;;;;;;23.50;29.40;;;;;;482646;246;2169;-74
2021/11/12 02:46:07;;;;;;;;;;;23.40;29.30;;;;;;482646;247;1066;-74
2021/11/12 02:48:09;;;;;;;;;;;23.50;29.50;;;;;;482714;247;1309;-74
2021/11/12 02:50:09;;;;;;;;;;;23.50;29.50;;;;;;482786;247;1404;-74
2021/11/12 02:52:11;;;;;;;;;;;23.40;29.50;;;;;;482702;246;1024;-74
2021/11/12 02:54:13;;;;;;;;;;;23.30;29.50;;;;;;482660;246;1132;-74
2021/11/12 02:56:16;;;;;;;;;;;23.30;29.50;;;;;;482587;247;1878;-74
2021/11/12 02:58:15;;;;;;;;;;;23.60;29.20;;;;;;482561;247;1437;-74
2021/11/12 03:00:16;;;;;;;;;;;23.40;29.40;;;;;;482725;246;936;-74
2021/11/12 03:02:17;;;;;;;;;;;23.20;29.50;;;;;;482638;246;958;-74
2021/11/12 03:04:19;;;;;;;;;;;23.20;29.40;;;;;;482687;247;2197;-74
2021/11/12 03:06:20;;;;;;;;;;;23.60;29.20;;;;;;482720;247;1322;-74
2021/11/12 03:08:21;;;;;;;;;;;23.50;29.30;;;;;;482665;247;922;-74
2021/11/12 03:10:23;;;;;;;;;;;23.40;29.40;;;;;;482721;246;1179;-74
2021/11/12 03:12:24;;;;;;;;;;;23.60;29.20;;;;;;482632;247;959;-74
2021/11/12 03:14:25;;;;;;;;;;;23.60;29.20;;;;;;482741;246;970;-74
2021/11/12 03:16:26;;;;;;;;;;;23.50;29.30;;;;;;482656;246;1137;-75
2021/11/12 03:18:28;;;;;;;;;;;23.50;29.20;;;;;;482598;247;1114;-74
2021/11/12 03:20:29;;;;;;;;;;;23.40;29.20;;;;;;482636;246;956;-74
2021/11/12 03:22:35;;;;;;;;;;;23.80;29.20;;;;;;482754;246;953;-74
2021/11/12 03:24:34;;;;;;;;;;;23.70;29.10;;;;;;482474;247;2180;-74
2021/11/12 03:26:38;;;;;;;;;;;23.40;29.30;;;;;;482551;247;1394;-74
2021/11/12 03:28:55;;;;;;;;;;;23.50;29.10;;;;;;482518;247;1452;-74
2021/11/12 03:49:41;;;;;;;;;;;23.50;29.20;;;;;;482759;246;1032;-74
2021/11/12 03:49:54;;;;;;;;;;;23.40;29.50;;;;;;481292;247;1207;-74
2021/11/12 04:00:55;;;;;;;;;;;23.60;29.20;;;;;;482725;246;1100;-74
2021/11/12 04:03:05;;;;;;;;;;;23.90;28.90;;;;;;482671;247;1283;-74
2021/11/12 04:05:17;;;;;;;;;;;23.50;29.10;;;;;;482436;247;2177;-74
2021/11/12 04:07:33;;;;;;;;;;;23.40;29.20;;;;;;482386;247;1530;-74
2021/11/12 04:19:01;;;;;;;;;;;23.30;29.30;;;;;;482757;246;1176;-74
2021/11/12 04:30:57;;;;;;;;;;;23.30;29.20;;;;;;482688;246;985;-74
2021/11/12 04:40:14;;;;;;;;;;;23.30;29.20;;;;;;482740;246;1038;-74
2021/11/12 05:03:24;;;;;;;;;;;23.50;28.80;;;;;;482679;246;1115;-74
2021/11/12 05:12:44;;;;;;;;;;;23.60;28.80;;;;;;478941;247;1207;-74
2021/11/12 05:34:19;;;;;;;;;;;23.50;28.70;;;;;;482599;246;1178;-74
2021/11/12 05:45:15;;;;;;;;;;;23.10;29.00;;;;;;482473;246;2117;-75
2021/11/12 05:49:44;;;;;;;;;;;23.20;29.00;;;;;;468918;247;1153;-74
2021/11/12 05:51:56;;;;;;;;;;;23.00;29.10;;;;;;482288;247;1525;-74
2021/11/12 05:56:07;;;;;;;;;;;23.20;29.00;;;;;;482421;246;1096;-74
2021/11/12 05:58:08;;;;;;;;;;;23.10;29.00;;;;;;482538;247;1164;-74
2021/11/12 06:00:10;;;;;;;;;;;23.10;29.00;;;;;;482368;246;1068;-74
2021/11/12 06:02:11;;;;;;;;;;;23.10;29.10;;;;;;482317;247;1108;-74
2021/11/12 06:04:13;;;;;;;;;;;23.00;29.10;;;;;;482548;246;1038;-74
2021/11/12 06:06:14;;;;;;;;;;;23.10;29.00;;;;;;482480;247;2125;-74
2021/11/12 06:08:16;;;;;;;;;;;23.00;29.00;;;;;;482439;246;982;-74
2021/11/12 06:10:17;;;;;;;;;;;23.50;28.70;;;;;;482514;246;1339;-74
2021/11/12 06:12:18;;;;;;;;;;;23.10;28.90;;;;;;482513;246;1171;-74
2021/11/12 06:14:19;;;;;;;;;;;23.40;28.70;;;;;;482403;246;1034;-74
2021/11/12 06:16:21;;;;;;;;;;;23.20;28.90;;;;;;482410;246;1267;-74
2021/11/12 06:18:22;;;;;;;;;;;23.10;29.10;;;;;;482344;246;1378;-74
2021/11/12 06:20:23;;;;;;;;;;;23.30;28.90;;;;;;482429;246;1254;-74
2021/11/12 06:22:24;;;;;;;;;;;23.40;28.70;;;;;;482426;246;1142;-74
2021/11/12 06:24:26;;;;;;;;;;;23.20;28.80;;;;;;482383;246;937;-74
2021/11/12 06:26:27;;;;;;;;;;;23.30;28.70;;;;;;482293;246;2121;-74
2021/11/12 06:28:28;;;;;;;;;;;23.20;28.80;;;;;;482392;246;1154;-74
2021/11/12 06:30:30;;;;;;;;;;;23.20;28.90;;;;;;482304;247;1261;-74
2021/11/12 06:32:31;;;;;;;;;;;23.10;28.90;;;;;;482393;246;979;-74
2021/11/12 06:34:32;;;;;;;;;;;23.30;28.90;;;;;;482270;247;1119;-74
2021/11/12 06:36:34;;;;;;;;;;;23.10;28.90;;;;;;482284;246;1316;-74
2021/11/12 06:38:36;;;;;;;;;;;23.30;28.90;;;;;;482307;246;993;-74
2021/11/12 06:40:36;;;;;;;;;;;23.30;28.80;;;;;;482307;247;1479;-74
2021/11/12 06:42:48;;;;;;;;;;;23.20;28.70;;;;;;482342;246;1112;-74
2021/11/12 06:44:54;;;;;;;;;;;23.20;28.80;;;;;;481621;247;2185;-74
2021/11/12 06:49:22;;;;;;;;;;;23.20;28.90;;;;;;482324;246;1052;-74
2021/11/12 06:51:21;;;;;;;;;;;23.40;28.80;;;;;;482220;247;1349;-74
2021/11/12 06:53:21;;;;;;;;;;;23.20;28.80;;;;;;482267;247;1342;-74
2021/11/12 06:55:23;;;;;;;;;;;23.00;28.90;;;;;;482297;246;1071;-74
2021/11/12 06:57:24;;;;;;;;;;;23.20;28.90;;;;;;482259;246;1067;-73
2021/11/12 06:59:25;;;;;;;;;;;23.10;28.80;;;;;;482253;246;964;-74
2021/11/12 07:01:30;;;;;;;;;;;23.00;29.00;;;;;;482261;246;1049;-74
2021/11/12 07:03:28;;;;;;;;;;;22.90;29.10;;;;;;482130;247;1361;-73
2021/11/12 07:05:29;;;;;;;;;;;22.90;29.00;;;;;;482277;246;2207;-73
2021/11/12 07:07:31;;;;;;;;;;;22.90;29.10;;;;;;482340;246;1192;-74
2021/11/12 07:09:32;;;;;;;;;;;22.90;29.10;;;;;;482221;247;971;-74
2021/11/12 07:11:34;;;;;;;;;;;22.90;29.10;;;;;;482129;247;1119;-74
2021/11/12 07:13:35;;;;;;;;;;;22.80;29.20;;;;;;482085;247;1270;-74
2021/11/12 07:15:37;;;;;;;;;;;23.10;29.10;;;;;;482095;246;1105;-74
2021/11/12 07:17:38;;;;;;;;;;;22.90;29.10;;;;;;482207;247;1317;-74
2021/11/12 07:19:39;;;;;;;;;;;22.80;29.10;;;;;;482142;246;964;-74
2021/11/12 07:21:41;;;;;;;;;;;22.80;29.20;;;;;;482100;247;1134;-74
2021/11/12 07:23:42;;;;;;;;;;;22.80;29.20;;;;;;482089;247;1038;-74
2021/11/12 07:25:43;;;;;;;;;;;22.80;29.30;;;;;;482118;247;2177;-74
2021/11/12 07:27:45;;;;;;;;;;;22.90;29.10;;;;;;482056;246;1115;-74
2021/11/12 07:29:48;;;;;;;;;;;22.80;29.20;;;;;;481941;246;1197;-74
2021/11/12 07:31:47;;;;;;;;;;;22.90;29.20;;;;;;481777;243;1354;-74
2021/11/12 07:33:48;;;;;;;;;;;22.90;29.10;;;;;;482150;247;1466;-74
2021/11/12 07:35:52;;;;;;;;;;;23.20;29.10;;;;;;482094;246;1053;-73
2021/11/12 07:37:58;;;;;;;;;;;23.10;29.20;;;;;;482079;247;2114;-73
2021/11/12 07:39:53;;;;;;;;;;;23.30;29.00;;;;;;481813;247;1477;-74
2021/11/12 07:42:18;;;;;;;;;;;23.30;28.90;;;;;;482105;247;1193;-74
2021/11/12 07:44:22;;;;;;;;;;;23.30;28.90;;;;;;481438;247;1466;-74
2021/11/12 07:46:21;;;;;;;;;;;23.20;28.90;;;;;;481541;247;2188;-74
2021/11/12 07:48:23;;;;;;;;;;;23.10;29.10;;;;;;481956;247;1417;-74
2021/11/12 07:50:23;;;;;;;;;;;23.10;29.10;;;;;;481905;247;1378;-74
2021/11/12 07:52:25;;;;;;;;;;;23.30;29.10;;;;;;481915;246;1134;-73
2021/11/12 07:54:26;;;;;;;;;;;23.10;29.10;;;;;;481683;247;971;-73
2021/11/12 07:56:27;;;;;;;;;;;23.20;29.00;;;;;;481853;246;1138;-73
2021/11/12 07:58:29;;;;;;;;;;;23.30;29.00;;;;;;481798;247;1116;-73
2021/11/12 08:00:31;;;;;;;;;;;23.30;29.10;;;;;;481995;247;964;-74
2021/11/12 08:02:31;;;;;;;;;;;23.20;29.30;;;;;;481992;247;1539;-74
2021/11/12 08:04:33;;;;;;;;;;;23.40;29.30;;;;;;481988;246;1077;-74
2021/11/12 08:06:34;;;;;;;;;;;23.10;29.30;;;;;;481965;246;2117;-73
2021/11/12 08:08:36;;;;;;;;;;;23.10;29.30;;;;;;481893;247;1179;-74
2021/11/12 08:10:45;;;;;;;;;;;23.10;29.50;;;;;;481863;246;1267;-74
2021/11/12 08:12:42;;;;;;;;;;;23.10;29.30;;;;;;481367;247;1594;-73
2021/11/12 08:14:52;;;;;;;;;;;23.40;29.20;;;;;;481876;247;1425;-74
2021/11/12 08:16:59;;;;;;;;;;;23.10;29.40;;;;;;481084;247;1398;-74
2021/11/12 08:18:59;;;;;;;;;;;23.10;29.30;;;;;;481572;247;1297;-74
2021/11/12 08:21:03;;;;;;;;;;;23.00;29.50;;;;;;481947;247;1456;-74
2021/11/12 08:23:01;;;;;;;;;;;23.20;29.40;;;;;;481544;247;1319;-74
2021/11/12 08:25:11;;;;;;;;;;;23.10;29.40;;;;;;481872;247;1539;-74
2021/11/12 08:27:25;;;;;;;;;;;23.20;29.40;;;;;;481748;247;2145;-73
2021/11/12 08:29:37;;;;;;;;;;;23.30;29.30;;;;;;481093;247;1315;-75
2021/11/12 08:31:39;;;;;;;;;;;23.40;29.20;;;;;;481499;247;1470;-74
2021/11/12 08:33:42;;;;;;;;;;;23.60;29.10;;;;;;481744;247;1294;-75
2021/11/12 08:35:55;;;;;;;;;;;23.40;29.20;;;;;;481631;247;1302;-74
2021/11/12 08:37:54;;;;;;;;;;;23.30;29.20;;;;;;481057;247;1409;-74
2021/11/12 08:40:01;;;;;;;;;;;23.20;29.30;;;;;;481729;247;1517;-74
2021/11/12 08:41:58;;;;;;;;;;;23.10;29.40;;;;;;481450;247;1450;-73
2021/11/12 08:44:04;;;;;;;;;;;23.20;29.40;;;;;;481688;247;1235;-74
2021/11/12 08:46:12;;;;;;;;;;;23.10;29.50;;;;;;481255;247;2177;-74
2021/11/12 08:48:13;;;;;;;;;;;23.30;29.40;;;;;;481461;247;1531;-74
2021/11/12 08:50:16;;;;;;;;;;;23.40;29.40;;;;;;481787;247;1380;-74
2021/11/12 08:52:14;;;;;;;;;;;23.40;29.30;;;;;;481482;247;1335;-74
2021/11/12 08:54:20;;;;;;;;;;;23.30;29.40;;;;;;481624;246;1406;-74
2021/11/12 08:56:16;;;;;;;;;;;23.20;29.40;;;;;;481450;247;1621;-74
2021/11/12 08:58:18;;;;;;;;;;;23.60;29.10;;;;;;482281;247;1173;-74
2021/11/12 09:00:19;;;;;;;;;;;23.30;29.40;;;;;;481980;247;999;-74
2021/11/12 09:02:21;;;;;;;;;;;23.30;29.40;;;;;;482174;247;1219;-74
2021/11/12 09:04:22;;;;;;;;;;;23.40;29.40;;;;;;481920;246;1267;-74
2021/11/12 09:06:23;;;;;;;;;;;23.30;29.50;;;;;;481862;246;2177;-74
2021/11/12 09:08:24;;;;;;;;;;;23.60;29.30;;;;;;481786;247;1141;-73
2021/11/12 09:10:26;;;;;;;;;;;23.40;29.40;;;;;;481602;247;993;-74
2021/11/12 09:12:28;;;;;;;;;;;23.30;29.50;;;;;;482037;246;1024;-74
2021/11/12 09:14:29;;;;;;;;;;;23.20;29.50;;;;;;481886;247;1389;-74
2021/11/12 09:16:32;;;;;;;;;;;23.10;29.60;;;;;;481758;247;1324;-74
2021/11/12 09:18:32;;;;;;;;;;;23.10;29.60;;;;;;482036;247;1390;-74
2021/11/12 09:20:33;;;;;;;;;;;23.10;29.80;;;;;;482012;247;1122;-74
2021/11/12 09:22:35;;;;;;;;;;;23.10;29.80;;;;;;482090;246;1180;-74
2021/11/12 09:24:36;;;;;;;;;;;23.40;29.70;;;;;;481989;246;1124;-74
2021/11/12 09:26:37;;;;;;;;;;;23.20;29.70;;;;;;481779;246;2125;-74
2021/11/12 09:28:39;;;;;;;;;;;23.50;29.40;;;;;;481827;246;1042;-74
2021/11/12 09:30:40;;;;;;;;;;;23.30;29.70;;;;;;481975;247;1319;-74
2021/11/12 09:32:41;;;;;;;;;;;23.30;29.60;;;;;;482006;246;1048;-74
2021/11/12 09:34:43;;;;;;;;;;;23.30;29.80;;;;;;481731;247;1011;-74
2021/11/12 09:36:45;;;;;;;;;;;23.30;29.70;;;;;;481543;247;1079;-74
2021/11/12 09:38:45;;;;;;;;;;;23.30;29.70;;;;;;481800;247;1218;-74
2021/11/12 09:40:47;;;;;;;;;;;23.40;29.60;;;;;;482039;247;1041;-74
2021/11/12 09:42:48;;;;;;;;;;;23.40;29.60;;;;;;482020;246;984;-73
2021/11/12 09:44:49;;;;;;;;;;;23.50;29.50;;;;;;481920;246;982;-74
2021/11/12 09:46:50;;;;;;;;;;;23.60;29.50;;;;;;481888;246;2185;-74
2021/11/12 09:48:52;;;;;;;;;;;23.40;29.70;;;;;;481862;246;957;-74
2021/11/12 09:50:53;;;;;;;;;;;23.30;29.70;;;;;;481754;246;1061;-74
2021/11/12 09:52:54;;;;;;;;;;;23.30;29.70;;;;;;482004;246;1079;-74
2021/11/12 09:54:56;;;;;;;;;;;23.80;29.60;;;;;;481826;246;1195;-74
2021/11/12 09:56:57;;;;;;;;;;;23.60;29.50;;;;;;481811;247;1409;-74
2021/11/12 09:58:58;;;;;;;;;;;23.50;29.50;;;;;;481856;246;1044;-74
2021/11/12 10:01:00;;;;;;;;;;;23.60;29.50;;;;;;481923;246;1173;-74
2021/11/12 10:03:02;;;;;;;;;;;23.40;29.70;;;;;;482030;246;1141;-74
2021/11/12 10:05:02;;;;;;;;;;;23.30;29.80;;;;;;481966;246;1412;-74
2021/11/12 10:07:04;;;;;;;;;;;23.60;29.60;;;;;;481723;247;2117;-73
2021/11/12 10:09:05;;;;;;;;;;;23.40;29.90;;;;;;481803;246;1375;-74
2021/11/12 10:11:06;;;;;;;;;;;23.40;29.80;;;;;;481719;246;1197;-74
2021/11/12 10:13:08;;;;;;;;;;;23.50;29.90;;;;;;481700;247;1095;-74
2021/11/12 10:15:11;;;;;;;;;;;23.30;30.00;;;;;;481740;247;1042;-74
2021/11/12 10:17:10;;;;;;;;;;;23.20;30.10;;;;;;481970;247;1314;-74
2021/11/12 10:19:12;;;;;;;;;;;23.50;30.00;;;;;;482371;246;1082;-74
2021/11/12 10:21:13;;;;;;;;;;;23.50;29.90;;;;;;481967;247;1379;-74
2021/11/12 10:23:15;;;;;;;;;;;23.50;29.90;;;;;;481669;247;1047;-73
2021/11/12 10:25:16;;;;;;;;;;;23.40;30.00;;;;;;481996;246;1154;-74
2021/11/12 10:27:18;;;;;;;;;;;23.20;30.00;;;;;;481927;246;2193;-74
2021/11/12 10:29:19;;;;;;;;;;;23.40;30.00;;;;;;481892;246;1180;-74
2021/11/12 10:31:20;;;;;;;;;;;23.30;30.10;;;;;;481802;246;1195;-74
2021/11/12 10:33:22;;;;;;;;;;;23.20;30.00;;;;;;481765;246;1120;-74
2021/11/12 10:35:23;;;;;;;;;;;23.40;30.10;;;;;;481753;246;1364;-74
2021/11/12 10:37:25;;;;;;;;;;;23.40;30.00;;;;;;481656;246;1137;-74
2021/11/12 10:39:26;;;;;;;;;;;23.20;30.10;;;;;;481710;247;1322;-74
2021/11/12 10:41:29;;;;;;;;;;;23.20;30.40;;;;;;481711;246;1059;-74
2021/11/12 10:43:29;;;;;;;;;;;23.00;30.50;;;;;;481796;247;1373;-74
2021/11/12 10:45:30;;;;;;;;;;;23.10;30.20;;;;;;481770;247;1033;-74
2021/11/12 10:47:32;;;;;;;;;;;23.20;30.30;;;;;;481899;246;2172;-74
2021/11/12 10:49:33;;;;;;;;;;;23.50;30.00;;;;;;481902;246;1129;-74
2021/11/12 10:51:34;;;;;;;;;;;23.40;30.00;;;;;;481865;246;1001;-74
2021/11/12 10:53:36;;;;;;;;;;;23.50;30.00;;;;;;481929;246;1039;-74
2021/11/12 10:55:37;;;;;;;;;;;23.50;30.00;;;;;;482038;246;1168;-74
2021/11/12 10:57:40;;;;;;;;;;;23.30;30.20;;;;;;481923;246;1092;-74
2021/11/12 10:59:40;;;;;;;;;;;23.00;30.30;;;;;;481741;247;1385;-73
2021/11/12 11:01:43;;;;;;;;;;;22.70;31.00;;;;;;481711;246;1411;-74
2021/11/12 11:03:42;;;;;;;;;;;22.40;31.40;;;;;;481787;247;1288;-74
2021/11/12 11:05:44;;;;;;;;;;;22.30;31.70;;;;;;481854;246;1435;-73
2021/11/12 11:07:45;;;;;;;;;;;22.20;31.90;;;;;;481955;246;2189;-73
2021/11/12 11:09:46;;;;;;;;;;;22.20;32.00;;;;;;481964;246;1154;-74
2021/11/12 11:11:49;;;;;;;;;;;22.40;31.70;;;;;;481919;247;1297;-73
2021/11/12 11:13:50;;;;;;;;;;;22.50;31.60;;;;;;481983;247;1271;-73
2021/11/12 11:15:50;;;;;;;;;;;22.90;31.30;;;;;;481944;247;1291;-73
2021/11/12 11:17:52;;;;;;;;;;;22.90;31.00;;;;;;481926;246;1182;-74
2021/11/12 11:19:53;;;;;;;;;;;23.20;30.80;;;;;;482037;246;1000;-74
2021/11/12 11:21:55;;;;;;;;;;;23.10;30.70;;;;;;481827;246;1228;-73
2021/11/12 11:23:57;;;;;;;;;;;23.10;30.90;;;;;;481772;247;1188;-59
2021/11/12 11:25:57;;;;;;;;;;;23.10;30.90;;;;;;481721;247;2406;-60
2021/11/12 11:27:59;;;;;;;;;;;24.10;29.70;;;;;;481661;246;2121;-59
2021/11/12 11:30:00;;;;;;;;;;;24.50;29.30;;;;;;481953;247;1712;-59
2021/11/12 11:32:01;;;;;;;;;;;24.60;29.20;;;;;;481786;246;1242;-60
2021/11/12 11:34:03;;;;;;;;;;;24.60;29.20;;;;;;481839;247;1054;-60
2021/11/12 11:36:04;;;;;;;;;;;24.60;29.20;;;;;;482095;246;1131;-60
2021/11/12 11:38:06;;;;;;;;;;;24.70;29.20;;;;;;482071;246;1254;-60
2021/11/12 11:40:07;;;;;;;;;;;24.70;29.10;;;;;;482147;246;1195;-60
2021/11/12 11:42:08;;;;;;;;;;;24.70;29.10;;;;;;482016;247;1363;-60
2021/11/12 11:44:09;;;;;;;;;;;24.80;29.10;;;;;;482151;246;1208;-59
2021/11/12 11:46:11;;;;;;;;;;;24.80;29.10;;;;;;482033;246;1054;-60
2021/11/12 11:48:13;;;;;;;;;;;24.80;29.10;;;;;;482022;246;2121;-60
2021/11/12 11:50:13;;;;;;;;;;;24.80;29.20;;;;;;481995;247;2264;-60
2021/11/12 11:52:15;;;;;;;;;;;24.80;29.10;;;;;;481877;246;1338;-60
2021/11/12 11:54:16;;;;;;;;;;;24.70;29.20;;;;;;482079;246;1099;-60
2021/11/12 11:56:17;;;;;;;;;;;24.70;29.20;;;;;;482070;246;1230;-60
2021/11/12 11:58:19;;;;;;;;;;;24.60;29.20;;;;;;482123;246;1110;-60
2021/11/12 12:00:21;;;;;;;;;;;24.70;29.10;;;;;;481933;246;1158;-60
2021/11/12 12:02:22;;;;;;;;;;;24.70;29.20;;;;;;481817;247;1200;-60
2021/11/12 12:04:24;;;;;;;;;;;24.80;29.10;;;;;;481865;246;1032;-59
2021/11/12 12:06:25;;;;;;;;;;;24.80;29.10;;;;;;481809;246;1218;-60
2021/11/12 12:08:26;;;;;;;;;;;24.70;29.20;;;;;;481826;246;2186;-60
2021/11/12 12:10:28;;;;;;;;;;;24.70;29.30;;;;;;481836;246;1185;-60
2021/11/12 12:12:29;;;;;;;;;;;24.80;29.20;;;;;;482065;246;1326;-59
2021/11/12 12:14:31;;;;;;;;;;;24.80;29.20;;;;;;481942;247;1044;-60
2021/11/12 12:16:32;;;;;;;;;;;24.80;29.20;;;;;;482059;247;1576;-59
2021/11/12 12:18:35;;;;;;;;;;;24.80;29.20;;;;;;482181;247;952;-60
2021/11/12 12:20:40;;;;;;;;;;;24.80;29.10;;;;;;482021;246;2398;-60
2021/11/12 12:30:52;;;;;;;;;;;24.80;29.10;;;;;;481653;247;2239;-59
2021/11/12 12:41:55;;;;;;;;;;;24.80;29.10;;;;;;468254;247;1927;-59
2021/11/12 13:19:33;;;;;;;;;;;24.20;29.80;;;;;;481834;246;1116;-73
2021/11/12 13:21:02;;;;;;;;;;;24.20;29.80;;;;;;480641;247;1167;-73
2021/11/12 13:23:16;;;;;;;;;;;24.20;29.80;;;;;;481785;247;1412;-73
2021/11/12 13:25:16;;;;;;;;;;;24.20;29.90;;;;;;481978;247;1198;-74
2021/11/12 13:27:17;;;;;;;;;;;24.00;29.90;;;;;;481923;243;2197;-74
2021/11/12 13:29:19;;;;;;;;;;;24.20;30.00;;;;;;481875;246;964;-73
2021/11/12 13:31:20;;;;;;;;;;;24.20;29.90;;;;;;481807;247;1235;-73
2021/11/12 13:33:21;;;;;;;;;;;24.20;29.90;;;;;;481853;247;1222;-73
2021/11/12 13:35:23;;;;;;;;;;;24.10;30.00;;;;;;482086;247;1033;-60
2021/11/12 13:37:24;;;;;;;;;;;24.10;30.00;;;;;;481946;246;1237;-60
2021/11/12 13:39:25;;;;;;;;;;;24.00;30.10;;;;;;482207;246;1828;-71
2021/11/12 13:41:26;;;;;;;;;;;23.90;30.30;;;;;;481872;246;1195;-73
2021/11/12 13:43:28;;;;;;;;;;;23.80;30.30;;;;;;481874;246;1033;-73
2021/11/12 13:45:29;;;;;;;;;;;23.50;30.60;;;;;;482091;247;1201;-73
2021/11/12 13:47:30;;;;;;;;;;;23.40;30.90;;;;;;482064;247;2133;-73
2021/11/12 13:49:33;;;;;;;;;;;23.30;31.00;;;;;;482002;246;961;-73
2021/11/12 13:51:34;;;;;;;;;;;23.20;30.90;;;;;;481806;247;1224;-73
2021/11/12 13:53:35;;;;;;;;;;;22.70;31.70;;;;;;481970;246;1190;-74
2021/11/12 13:55:36;;;;;;;;;;;22.40;32.20;;;;;;482103;246;1184;-73
2021/11/12 13:57:38;;;;;;;;;;;22.20;32.60;;;;;;482057;246;1197;-73
2021/11/12 13:59:39;;;;;;;;;;;22.10;32.80;;;;;;482126;246;1050;-73
2021/11/12 14:01:41;;;;;;;;;;;22.00;32.90;;;;;;482127;246;1023;-73
2021/11/12 14:03:42;;;;;;;;;;;21.90;33.10;;;;;;482021;246;969;-73
2021/11/12 14:05:43;;;;;;;;;;;22.00;33.10;;;;;;482124;246;988;-73
2021/11/12 14:07:45;;;;;;;;;;;21.90;33.10;;;;;;482053;247;2169;-73
2021/11/12 14:09:47;;;;;;;;;;;21.90;33.30;;;;;;482114;247;997;-73
2021/11/12 14:11:47;;;;;;;;;;;21.80;33.20;;;;;;481966;247;1433;-73
2021/11/12 14:13:49;;;;;;;;;;;21.80;33.20;;;;;;482064;247;1028;-74
2021/11/12 14:15:50;;;;;;;;;;;21.90;33.20;;;;;;481780;247;1166;-73
2021/11/12 14:17:59;;;;;;;;;;;21.90;33.20;;;;;;481957;246;1110;-73
2021/11/12 14:20:08;;;;;;;;;;;21.80;33.30;;;;;;481752;247;2168;-73
2021/11/12 14:22:07;;;;;;;;;;;21.80;33.30;;;;;;481589;247;1439;-73
2021/11/12 14:24:33;;;;;;;;;;;21.80;33.30;;;;;;481784;247;1306;-73
2021/11/12 14:26:32;;;;;;;;;;;21.70;33.40;;;;;;481789;247;1442;-74
2021/11/12 14:28:39;;;;;;;;;;;21.80;33.40;;;;;;481916;247;2208;-73
2021/11/12 14:31:00;;;;;;;;;;;21.80;33.40;;;;;;481936;247;1452;-73
2021/11/12 14:33:05;;;;;;;;;;;21.70;33.40;;;;;;481739;247;1439;-73
2021/11/12 14:35:12;;;;;;;;;;;21.70;33.40;;;;;;481899;247;1438;-73
2021/11/12 14:37:13;;;;;;;;;;;21.70;33.30;;;;;;481808;247;1554;-73
2021/11/12 14:39:16;;;;;;;;;;;21.70;33.40;;;;;;481805;247;1265;-73
2021/11/12 14:41:27;;;;;;;;;;;21.70;33.40;;;;;;481804;243;1316;-73
2021/11/12 14:43:28;;;;;;;;;;;21.70;33.40;;;;;;481513;247;1409;-73
2021/11/12 14:45:26;;;;;;;;;;;21.70;33.40;;;;;;481819;247;1440;-73
2021/11/12 14:47:29;;;;;;;;;;;21.70;33.50;;;;;;482034;247;2179;-73
2021/11/12 14:49:30;;;;;;;;;;;21.70;33.40;;;;;;481932;247;1520;-73
2021/11/12 14:51:29;;;;;;;;;;;21.80;33.40;;;;;;481728;247;1409;-73
2021/11/12 14:53:34;;;;;;;;;;;21.70;33.40;;;;;;482002;246;1150;-73
2021/11/12 14:55:32;;;;;;;;;;;21.70;33.40;;;;;;481913;247;1470;-73
2021/11/12 14:57:36;;;;;;;;;;;21.70;33.40;;;;;;482159;244;1208;-73
2021/11/12 14:59:36;;;;;;;;;;;21.70;33.40;;;;;;481920;247;1520;-73
2021/11/12 15:01:38;;;;;;;;;;;21.70;33.40;;;;;;482059;247;1343;-73
2021/11/12 15:03:41;;;;;;;;;;;21.70;33.40;;;;;;482097;247;1399;-73
2021/11/12 15:05:41;;;;;;;;;;;21.70;33.40;;;;;;481759;247;1581;-73